Time;durP1;ratioP1;P1;durP2;ratioP2;P2;SDS_P1;SDS_P2;PMS_P1;PMS_P2;Temp;Humidity;BMP_temperature;BMP_pressure;BME280_temperature;BME280_humidity;BME280_pressure;Samples;Min_cycle;Max_cycle;Signal;HPM_P1;HPM_P2
2021/08/11 12:00:01;;;;;;;4.83;4.43;;;33.20;73.60;;;;;;6102008;22;21083;-83
2021/08/11 12:02:30;;;;;;;5.00;4.60;;;33.60;73.40;;;;;;6231296;23;20459;-85
2021/08/11 12:12:03;;;;;;;4.67;4.27;;;31.70;76.50;;;;;;5857539;24;20445;-83
2021/08/11 13:38:38;;;;;;;;;;;;;;;;;;;;;
2021/08/11 13:41:48;;;;;;;4.43;4.13;;;35.50;58.60;;;;;;6115542;23;20409;-82
2021/08/11 13:48:40;;;;;;;4.83;4.40;;;35.80;59.00;;;;;;6114761;23;20460;-82
2021/08/11 13:55:04;;;;;;;5.10;4.37;;;34.00;61.00;;;;;;5887671;23;20442;-83
2021/08/11 13:58:06;;;;;;;5.30;4.10;;;33.20;61.30;;;;;;6208016;23;20389;-84
2021/08/11 14:00:44;;;;;;;4.90;4.17;;;32.80;64.60;;;;;;6057521;23;20524;-85
2021/08/11 14:03:11;;;;;;;4.70;4.40;;;32.50;65.20;;;;;;6206327;23;20414;-86
2021/08/11 14:05:41;;;;;;;4.90;4.50;;;32.40;67.10;;;;;;6206674;23;20440;-84
2021/08/11 14:08:13;;;;;;;6.63;4.63;;;32.30;65.70;;;;;;6205386;23;20884;-84
2021/08/11 14:10:40;;;;;;;4.80;4.40;;;31.70;66.00;;;;;;6207251;23;20462;-84
2021/08/11 14:23:56;;;;;;;4.03;3.83;;;32.80;66.10;;;;;;5873585;24;20916;-86
2021/08/11 14:32:23;;;;;;;4.43;4.13;;;36.10;57.10;;;;;;5838919;24;20424;-84
2021/08/11 14:34:52;;;;;;;5.00;4.70;;;36.00;56.60;;;;;;6013541;23;20442;-85
2021/08/11 14:37:19;;;;;;;4.80;4.50;;;35.80;55.90;;;;;;6143043;23;20438;-87
2021/08/11 14:43:13;;;;;;;4.43;4.03;;;36.30;56.20;;;;;;5965367;24;20429;-86
2021/08/11 14:59:11;;;;;;;5.07;4.00;;;34.10;58.70;;;;;;5946086;23;20430;-82
2021/08/11 15:01:40;;;;;;;5.23;4.37;;;33.90;57.90;;;;;;6104694;23;20448;-82
2021/08/11 15:04:13;;;;;;;5.30;4.90;;;33.70;59.10;;;;;;6206702;23;20421;-82
2021/08/11 15:06:39;;;;;;;5.10;4.60;;;33.50;59.30;;;;;;6204106;23;20431;-85
2021/08/11 15:09:08;;;;;;;5.10;4.70;;;33.40;59.80;;;;;;6205078;23;20427;-85
2021/08/11 15:11:36;;;;;;;5.53;5.03;;;32.60;60.10;;;;;;6205624;23;20464;-84
2021/08/11 15:14:03;;;;;;;7.20;4.83;;;32.10;61.60;;;;;;6204746;23;20492;-84
2021/08/11 15:16:47;;;;;;;;;;;;;;;;;;;;;
2021/08/11 15:30:04;;;;;;;;;;;;;;;;;;;;;
2021/08/11 15:35:38;;;;;;;4.63;4.33;;;30.40;66.70;;;;;;6194541;23;20471;-84
2021/08/11 15:38:07;;;;;;;5.57;5.00;;;30.20;66.50;;;;;;6205322;23;20429;-85
2021/08/11 15:40:33;;;;;;;5.23;4.77;;;30.30;65.50;;;;;;6207393;23;20472;-84
2021/08/11 15:43:00;;;;;;;5.40;4.90;;;30.30;65.70;;;;;;6207986;23;20437;-84
2021/08/11 15:45:28;;;;;;;6.23;5.57;;;30.30;65.10;;;;;;6203482;23;20507;-84
2021/08/11 15:47:55;;;;;;;5.70;5.20;;;30.20;65.80;;;;;;6208330;23;20501;-84
2021/08/11 15:50:22;;;;;;;5.60;5.13;;;29.90;64.70;;;;;;6207235;23;20444;-84
2021/08/11 15:52:49;;;;;;;5.13;4.80;;;29.70;66.00;;;;;;6204895;23;20434;-84
2021/08/11 15:55:21;;;;;;;6.00;4.80;;;29.50;65.30;;;;;;6204396;23;20423;-85
2021/08/11 15:57:51;;;;;;;4.97;4.57;;;29.50;65.70;;;;;;6203387;23;20405;-86
2021/08/11 16:00:32;;;;;;;5.80;5.30;;;29.20;66.90;;;;;;6200598;23;20413;-85
2021/08/11 16:03:06;;;;;;;4.70;4.30;;;29.20;66.20;;;;;;6199894;23;20408;-85
2021/08/11 16:05:40;;;;;;;5.40;4.87;;;29.20;67.60;;;;;;6199195;23;20943;-85
2021/08/11 16:08:07;;;;;;;6.20;5.70;;;29.00;67.20;;;;;;6200489;23;20402;-85
2021/08/11 16:10:37;;;;;;;5.27;4.77;;;29.10;66.50;;;;;;6198988;23;20409;-85
2021/08/11 16:13:07;;;;;;;5.30;4.80;;;29.60;65.10;;;;;;6199055;23;20886;-85
2021/08/11 16:15:34;;;;;;;6.37;5.17;;;30.20;63.80;;;;;;6199018;23;20419;-85
2021/08/11 16:18:03;;;;;;;5.17;4.77;;;30.70;62.50;;;;;;6199048;23;20412;-85
2021/08/11 16:20:30;;;;;;;5.17;4.70;;;31.50;60.50;;;;;;6199265;23;20495;-85
2021/08/11 16:22:57;;;;;;;5.00;4.70;;;32.20;59.50;;;;;;6198773;23;20437;-85
2021/08/11 16:25:24;;;;;;;4.83;4.50;;;32.70;58.30;;;;;;6199456;23;20451;-86
2021/08/11 16:27:50;;;;;;;5.00;3.87;;;32.90;57.10;;;;;;6199602;23;20421;-86
2021/08/11 16:30:20;;;;;;;4.80;4.40;;;32.80;56.90;;;;;;6199702;23;20425;-85
2021/08/11 16:32:47;;;;;;;4.50;4.20;;;32.80;57.10;;;;;;6198106;23;20405;-83
2021/08/11 16:35:19;;;;;;;6.60;5.93;;;32.70;58.20;;;;;;6227476;23;20507;-83
2021/08/11 16:37:48;;;;;;;5.00;4.60;;;32.70;57.70;;;;;;6229232;23;20411;-84
2021/08/11 16:40:16;;;;;;;5.63;5.10;;;32.10;56.80;;;;;;6229787;23;20417;-83
2021/08/11 16:42:43;;;;;;;4.80;4.50;;;31.60;57.50;;;;;;6229598;23;20408;-85
2021/08/11 16:45:11;;;;;;;5.03;4.53;;;31.50;58.10;;;;;;6228237;23;20522;-85
2021/08/11 16:47:38;;;;;;;5.10;4.70;;;31.30;58.20;;;;;;6228588;23;20414;-85
2021/08/11 16:50:05;;;;;;;4.37;3.97;;;31.20;58.10;;;;;;6228425;23;20489;-85
2021/08/11 16:52:33;;;;;;;5.73;5.13;;;31.00;58.80;;;;;;6228374;23;20918;-85
2021/08/11 16:55:00;;;;;;;5.20;4.70;;;30.80;59.60;;;;;;6228628;23;20431;-86
2021/08/11 16:57:27;;;;;;;4.90;4.50;;;30.70;60.20;;;;;;6229827;23;20416;-85
2021/08/11 16:59:54;;;;;;;5.80;4.57;;;30.60;60.70;;;;;;6229601;23;20418;-85
2021/08/11 17:02:20;;;;;;;4.80;4.40;;;30.50;59.90;;;;;;6229404;23;20422;-85
2021/08/11 17:04:47;;;;;;;5.03;4.53;;;30.40;60.00;;;;;;6229711;23;20432;-85
2021/08/11 17:07:14;;;;;;;5.00;4.60;;;30.60;61.50;;;;;;6229059;23;20454;-85
2021/08/11 17:09:42;;;;;;;5.33;4.83;;;31.00;59.60;;;;;;6231744;23;20477;-84
2021/08/11 17:12:09;;;;;;;4.77;4.00;;;31.20;58.90;;;;;;6235850;23;20442;-84
2021/08/11 17:14:36;;;;;;;5.87;5.13;;;31.60;59.00;;;;;;6235467;23;20758;-85
2021/08/11 17:17:05;;;;;;;5.80;5.40;;;31.90;58.20;;;;;;6232274;23;20405;-85
2021/08/11 17:19:32;;;;;;;4.33;4.03;;;32.30;56.80;;;;;;6230576;23;20786;-86
2021/08/11 17:21:59;;;;;;;5.13;4.63;;;32.30;57.00;;;;;;6230156;23;20414;-85
2021/08/11 17:24:26;;;;;;;5.40;4.90;;;32.70;56.60;;;;;;6231582;23;20504;-82
2021/08/11 17:26:54;;;;;;;7.83;5.97;;;33.20;56.30;;;;;;6235178;23;20504;-83
2021/08/11 17:29:21;;;;;;;4.77;4.27;;;33.20;55.50;;;;;;6232418;23;20440;-83
2021/08/11 17:31:49;;;;;;;4.87;4.37;;;33.00;54.90;;;;;;6234147;23;20436;-84
2021/08/11 17:34:15;;;;;;;5.37;4.97;;;32.50;55.40;;;;;;6234563;23;20512;-86
2021/08/11 17:36:44;;;;;;;5.23;4.70;;;32.70;56.20;;;;;;6233481;23;20438;-85
2021/08/11 17:39:11;;;;;;;5.10;4.57;;;32.20;56.00;;;;;;6234257;23;20494;-84
2021/08/11 17:41:38;;;;;;;6.13;4.70;;;31.80;57.20;;;;;;6236437;23;20417;-84
2021/08/11 17:44:06;;;;;;;5.57;5.07;;;31.50;58.10;;;;;;6235443;23;20433;-85
2021/08/11 17:46:33;;;;;;;5.13;4.73;;;30.90;58.80;;;;;;6236284;23;20453;-84
2021/08/11 17:48:59;;;;;;;5.23;4.73;;;29.90;59.60;;;;;;6233224;23;20427;-84
2021/08/11 17:51:26;;;;;;;6.20;4.40;;;29.50;61.50;;;;;;6232683;23;20437;-85
2021/08/11 17:53:53;;;;;;;4.40;4.10;;;29.00;63.20;;;;;;6234998;23;20462;-84
2021/08/11 17:56:20;;;;;;;5.83;5.33;;;28.30;64.80;;;;;;6236701;23;20403;-84
2021/08/11 17:58:47;;;;;;;5.50;5.00;;;28.00;66.70;;;;;;6235004;23;20411;-84
2021/08/11 18:01:15;;;;;;;6.73;4.00;;;27.70;67.70;;;;;;6236165;23;20499;-84
2021/08/11 18:03:42;;;;;;;4.60;4.30;;;27.40;68.80;;;;;;6231612;23;20440;-84
2021/08/11 18:06:09;;;;;;;6.73;4.43;;;27.10;69.60;;;;;;6232159;23;20528;-85
2021/08/11 18:08:36;;;;;;;5.63;5.13;;;26.90;70.70;;;;;;6235143;23;20437;-84
2021/08/11 18:11:02;;;;;;;5.77;5.27;;;26.70;71.00;;;;;;6233203;23;20430;-83
2021/08/11 18:13:31;;;;;;;5.47;4.77;;;26.50;71.90;;;;;;6228663;23;20442;-84
2021/08/11 18:15:58;;;;;;;5.23;4.73;;;26.30;73.00;;;;;;6227960;23;20418;-85
2021/08/11 18:18:27;;;;;;;4.30;4.00;;;26.10;73.40;;;;;;6228261;23;20409;-85
2021/08/11 18:20:54;;;;;;;6.60;4.57;;;26.10;74.20;;;;;;6227883;23;20726;-85
2021/08/11 18:23:21;;;;;;;5.37;4.87;;;26.00;74.40;;;;;;6227967;23;20431;-84
2021/08/11 18:25:48;;;;;;;6.20;5.70;;;25.90;74.90;;;;;;6227555;23;20732;-85
2021/08/11 18:28:17;;;;;;;5.10;4.70;;;25.80;75.50;;;;;;6228072;23;20440;-85
2021/08/11 18:30:44;;;;;;;4.50;4.10;;;25.70;75.80;;;;;;6228193;23;20410;-84
2021/08/11 18:33:10;;;;;;;9.10;4.73;;;25.60;76.20;;;;;;6226975;23;20403;-85
2021/08/11 18:35:42;;;;;;;6.00;5.50;;;25.40;76.80;;;;;;6238999;23;20404;-83
2021/08/11 18:38:10;;;;;;;5.80;5.30;;;25.40;77.20;;;;;;6238480;23;20482;-85
2021/08/11 18:40:40;;;;;;;5.63;5.13;;;25.40;77.70;;;;;;6232905;23;20416;-83
2021/08/11 18:43:07;;;;;;;7.17;6.57;;;25.40;78.30;;;;;;6237967;23;20944;-83
2021/08/11 18:45:34;;;;;;;6.97;6.27;;;25.30;79.00;;;;;;6237876;23;20445;-82
2021/08/11 18:48:01;;;;;;;7.30;6.57;;;25.20;79.60;;;;;;6237834;23;20473;-83
2021/08/11 18:50:29;;;;;;;6.13;5.00;;;25.10;81.00;;;;;;6237390;23;20417;-83
2021/08/11 18:52:57;;;;;;;5.30;4.73;;;25.00;81.00;;;;;;6236850;23;20420;-82
2021/08/11 18:55:35;;;;;;;7.37;6.80;;;24.90;81.70;;;;;;6234987;23;20420;-84
2021/08/11 18:58:32;;;;;;;;;;;;;;;;;;;;;
2021/08/11 19:01:10;;;;;;;6.20;5.70;;;24.60;83.00;;;;;;6230879;23;20413;-83
2021/08/11 19:06:52;;;;;;;6.27;5.67;;;24.30;84.30;;;;;;6233884;23;20464;-85
2021/08/11 19:09:20;;;;;;;6.00;5.50;;;24.20;85.20;;;;;;6233667;23;20469;-83
2021/08/11 19:11:47;;;;;;;6.00;5.50;;;24.10;86.00;;;;;;6235616;23;20424;-84
2021/08/11 19:14:14;;;;;;;6.57;5.40;;;24.00;86.70;;;;;;6228247;23;20425;-85
2021/08/11 19:16:40;;;;;;;6.40;5.90;;;23.80;87.00;;;;;;6228355;23;20408;-85
2021/08/11 19:19:07;;;;;;;5.93;5.50;;;23.70;87.50;;;;;;6229288;23;20480;-84
2021/08/11 19:21:39;;;;;;;6.90;6.30;;;23.60;88.30;;;;;;6228255;23;20409;-85
2021/08/11 19:24:06;;;;;;;6.07;5.53;;;23.60;89.30;;;;;;6228326;23;20454;-84
2021/08/11 19:26:38;;;;;;;5.73;5.23;;;23.40;89.70;;;;;;6228681;23;20952;-84
2021/08/11 19:29:06;;;;;;;6.03;5.10;;;23.40;90.10;;;;;;6227656;23;20398;-85
2021/08/11 19:31:33;;;;;;;7.20;6.50;;;23.20;90.30;;;;;;6227073;23;20409;-84
2021/08/11 19:34:00;;;;;;;7.17;6.57;;;23.10;90.50;;;;;;6226796;23;20463;-85
2021/08/11 19:36:26;;;;;;;6.10;5.50;;;23.10;90.80;;;;;;6226975;23;20405;-85
2021/08/11 19:38:54;;;;;;;6.63;5.93;;;23.00;91.00;;;;;;6228077;23;20442;-84
2021/08/11 19:41:21;;;;;;;7.13;6.43;;;22.90;91.40;;;;;;6226930;23;20444;-85
2021/08/11 19:43:52;;;;;;;8.90;7.63;;;22.80;91.50;;;;;;6227315;23;20438;-85
